createdAt,value
2023-05-09T00:00:05.509Z,8.40
2023-05-09T00:02:34.765Z,6.77
2023-05-09T00:05:04.017Z,7.90
2023-05-09T00:07:32.422Z,7.07
2023-05-09T00:10:01.678Z,6.10
2023-05-09T00:12:29.828Z,6.33
2023-05-09T00:14:58.232Z,6.43
2023-05-09T00:17:26.838Z,7.07
2023-05-09T00:19:55.469Z,6.73
2023-05-09T00:22:23.368Z,7.07
2023-05-09T00:24:51.831Z,5.97
2023-05-09T00:27:21.143Z,6.80
2023-05-09T00:29:49.082Z,8.20
2023-05-09T00:32:17.116Z,6.57
2023-05-09T00:34:45.185Z,5.97
2023-05-09T00:37:13.096Z,6.03
2023-05-09T00:39:41.013Z,6.23
2023-05-09T00:42:08.835Z,5.80
2023-05-09T00:44:38.238Z,6.40
2023-05-09T00:47:06.674Z,7.37
2023-05-09T00:49:35.024Z,7.33
2023-05-09T00:52:04.980Z,7.10
2023-05-09T00:54:33.025Z,6.13
2023-05-09T00:57:01.458Z,7.23
2023-05-09T00:59:29.575Z,7.57
2023-05-09T01:01:58.857Z,5.97
2023-05-09T01:04:26.998Z,6.90
2023-05-09T01:07:04.438Z,7.07
2023-05-09T01:09:39.567Z,7.83
2023-05-09T01:12:15.088Z,9.03
2023-05-09T01:14:56.482Z,8.07
2023-05-09T01:17:35.858Z,9.40
2023-05-09T01:20:13.626Z,8.13
2023-05-09T01:22:48.264Z,9.77
2023-05-09T01:25:38.988Z,9.17
2023-05-09T01:28:15.397Z,11.23
2023-05-09T01:30:47.876Z,11.83
2023-05-09T01:33:20.288Z,12.93
2023-05-09T01:35:52.847Z,12.63
2023-05-09T01:38:25.012Z,9.27
2023-05-09T01:40:56.040Z,8.70
2023-05-09T01:43:26.731Z,8.07
2023-05-09T01:45:57.077Z,7.90
2023-05-09T01:48:27.269Z,6.83
2023-05-09T01:50:56.440Z,6.70
2023-05-09T01:53:25.418Z,7.13
2023-05-09T01:55:55.183Z,6.70
2023-05-09T01:58:23.808Z,6.53
2023-05-09T02:00:52.520Z,6.47
2023-05-09T02:03:23.568Z,6.77
2023-05-09T02:05:51.941Z,5.47
2023-05-09T02:08:22.198Z,6.17
2023-05-09T02:10:50.806Z,6.17
2023-05-09T02:13:18.818Z,5.97
2023-05-09T02:15:47.795Z,5.87
2023-05-09T02:18:16.894Z,5.50
2023-05-09T02:20:46.552Z,5.83
2023-05-09T02:23:14.600Z,7.30
2023-05-09T02:25:42.712Z,8.40
2023-05-09T02:28:11.587Z,8.07
2023-05-09T02:30:43.206Z,8.30
2023-05-09T02:33:13.741Z,8.93
2023-05-09T02:35:45.143Z,7.97
2023-05-09T02:38:15.507Z,7.50
2023-05-09T02:40:44.737Z,7.07
2023-05-09T02:43:12.719Z,6.97
2023-05-09T02:45:40.720Z,5.93
2023-05-09T02:48:09.472Z,5.73
2023-05-09T02:50:39.644Z,5.50
2023-05-09T02:53:07.608Z,5.73
2023-05-09T02:55:36.873Z,6.07
2023-05-09T02:58:13.460Z,5.33
2023-05-09T03:00:43.063Z,6.07
2023-05-09T03:03:11.398Z,6.60
2023-05-09T03:05:39.468Z,6.60
2023-05-09T03:08:07.388Z,5.30
2023-05-09T03:10:36.668Z,6.27
2023-05-09T03:13:05.201Z,6.00
2023-05-09T03:15:33.138Z,5.97
2023-05-09T03:18:01.084Z,7.07
2023-05-09T03:20:29.053Z,7.93
2023-05-09T03:22:56.957Z,6.10
2023-05-09T03:25:26.437Z,6.83
2023-05-09T03:27:56.164Z,7.30
2023-05-09T03:30:24.068Z,7.20
2023-05-09T03:32:52.007Z,7.60
2023-05-09T03:35:20.290Z,6.73
2023-05-09T03:37:48.183Z,6.33
2023-05-09T03:40:16.281Z,6.90
2023-05-09T03:42:44.360Z,8.33
2023-05-09T03:45:14.136Z,6.80
2023-05-09T03:47:42.268Z,6.20
2023-05-09T03:50:11.388Z,6.80
2023-05-09T03:52:39.269Z,6.00
2023-05-09T03:55:08.180Z,6.90
2023-05-09T03:57:36.969Z,7.17
2023-05-09T04:00:06.212Z,6.87
2023-05-09T04:02:36.233Z,7.00
2023-05-09T04:05:05.316Z,6.77
2023-05-09T04:07:33.585Z,6.07
2023-05-09T04:10:01.584Z,5.67
2023-05-09T04:12:29.530Z,6.07
2023-05-09T04:14:57.524Z,5.77
2023-05-09T04:17:25.645Z,5.53
2023-05-09T04:19:54.947Z,5.73
2023-05-09T04:22:22.912Z,5.33
2023-05-09T04:24:51.234Z,7.43
2023-05-09T04:27:19.106Z,6.33
2023-05-09T04:29:47.061Z,6.13
2023-05-09T04:32:15.084Z,8.10
2023-05-09T04:34:43.138Z,6.13
2023-05-09T04:37:13.415Z,6.83
2023-05-09T04:39:41.386Z,6.67
2023-05-09T04:42:09.246Z,6.47
2023-05-09T04:44:37.139Z,6.50
2023-05-09T04:47:05.153Z,7.33
2023-05-09T04:49:33.262Z,7.00
2023-05-09T04:52:01.162Z,14.00
2023-05-09T04:54:30.399Z,7.23
2023-05-09T04:57:09.944Z,7.17
2023-05-09T04:59:42.063Z,6.67
2023-05-09T05:02:09.953Z,7.67
2023-05-09T05:04:37.954Z,7.33
2023-05-09T05:07:06.203Z,6.83
2023-05-09T05:09:35.550Z,8.37
2023-05-09T05:12:09.189Z,6.80
2023-05-09T05:14:37.758Z,7.27
2023-05-09T05:17:05.671Z,6.60
2023-05-09T05:19:34.142Z,6.57
2023-05-09T05:22:02.071Z,5.73
2023-05-09T05:24:30.002Z,5.47
2023-05-09T05:26:59.294Z,5.80
2023-05-09T05:29:27.182Z,6.00
2023-05-09T05:31:55.627Z,6.43
2023-05-09T05:34:23.715Z,6.07
2023-05-09T05:36:51.700Z,6.37
2023-05-09T05:39:19.757Z,7.47
2023-05-09T05:41:47.737Z,5.90
2023-05-09T05:44:16.949Z,6.10
2023-05-09T05:46:44.989Z,6.07
2023-05-09T05:49:12.884Z,6.27
2023-05-09T05:51:40.928Z,7.33
2023-05-09T05:54:08.782Z,6.30
2023-05-09T05:56:36.661Z,5.80
2023-05-09T05:59:04.637Z,6.73
2023-05-09T06:01:33.983Z,6.60
2023-05-09T06:04:01.951Z,5.97
2023-05-09T06:06:30.045Z,6.90
2023-05-09T06:08:57.925Z,5.77
2023-05-09T06:11:25.909Z,6.87
2023-05-09T06:13:53.810Z,6.23
2023-05-09T06:16:22.145Z,6.20
2023-05-09T06:18:53.353Z,6.03
2023-05-09T06:21:22.933Z,7.10
2023-05-09T06:24:06.453Z,6.00
2023-05-09T06:26:38.217Z,7.37
2023-05-09T06:29:07.851Z,6.87
2023-05-09T06:31:38.652Z,6.13
2023-05-09T06:34:09.316Z,6.83
2023-05-09T06:36:37.269Z,5.93
2023-05-09T06:39:05.324Z,7.00
2023-05-09T06:41:33.220Z,7.03
2023-05-09T06:44:02.624Z,6.73
2023-05-09T06:46:30.651Z,6.03
2023-05-09T06:48:58.610Z,6.23
2023-05-09T06:51:28.240Z,6.50
2023-05-09T06:53:56.205Z,5.93
2023-05-09T06:56:25.400Z,5.57
2023-05-09T06:58:53.509Z,6.13
2023-05-09T07:01:21.492Z,5.93
2023-05-09T07:03:49.474Z,6.00
2023-05-09T07:06:17.598Z,5.37
2023-05-09T07:08:46.926Z,5.57
2023-05-09T07:11:14.845Z,5.67
2023-05-09T07:13:42.809Z,5.83
2023-05-09T07:16:10.801Z,6.10
2023-05-09T07:18:38.841Z,6.07
2023-05-09T07:21:07.374Z,6.37
2023-05-09T07:23:35.552Z,7.27
2023-05-09T07:26:04.883Z,7.03
2023-05-09T07:28:32.845Z,5.57
2023-05-09T07:31:00.872Z,5.83
2023-05-09T07:33:28.771Z,6.33
2023-05-09T07:35:56.804Z,6.43
2023-05-09T07:38:24.793Z,6.00
2023-05-09T07:40:53.252Z,6.50
2023-05-09T07:43:22.583Z,5.97
2023-05-09T07:45:50.602Z,5.73
2023-05-09T07:48:18.731Z,5.83
2023-05-09T07:50:46.681Z,7.00
2023-05-09T07:53:14.609Z,6.47
2023-05-09T07:55:44.639Z,5.20
2023-05-09T07:58:12.860Z,6.30
2023-05-09T08:00:42.260Z,6.73
2023-05-09T08:03:10.467Z,5.30
2023-05-09T08:05:38.601Z,6.53
2023-05-09T08:08:07.920Z,5.97
2023-05-09T08:10:35.878Z,5.63
2023-05-09T08:13:03.865Z,6.07
2023-05-09T08:15:32.315Z,6.27
2023-05-09T08:18:01.643Z,5.60
2023-05-09T08:20:31.744Z,5.83
2023-05-09T08:22:59.720Z,5.37
2023-05-09T08:25:29.746Z,5.37
2023-05-09T08:27:57.704Z,5.53
2023-05-09T08:30:25.662Z,5.57
2023-05-09T08:32:53.788Z,5.37
2023-05-09T08:35:23.359Z,6.17
2023-05-09T08:37:51.500Z,6.83
2023-05-09T08:40:19.795Z,6.47
2023-05-09T08:42:51.077Z,6.37
2023-05-09T08:45:26.784Z,5.73
2023-05-09T08:47:55.393Z,6.13
2023-05-09T08:50:25.735Z,6.07
2023-05-09T08:52:54.705Z,5.87
2023-05-09T08:55:23.191Z,6.23
2023-05-09T08:57:51.440Z,6.23
2023-05-09T09:00:21.694Z,6.60
2023-05-09T09:02:50.446Z,7.33
2023-05-09T09:05:39.415Z,5.93
2023-05-09T09:08:09.283Z,6.77
2023-05-09T09:10:40.664Z,6.50
2023-05-09T09:13:11.318Z,6.80
2023-05-09T09:15:41.663Z,6.33
2023-05-09T09:18:11.001Z,6.50
2023-05-09T09:20:46.312Z,5.90
2023-05-09T09:23:20.273Z,7.03
2023-05-09T09:25:48.319Z,6.00
2023-05-09T09:28:16.344Z,6.93
2023-05-09T09:30:49.561Z,5.10
2023-05-09T09:33:22.252Z,5.57
2023-05-09T09:35:51.649Z,6.87
2023-05-09T09:38:21.973Z,5.60
2023-05-09T09:40:54.006Z,7.10
2023-05-09T09:43:22.087Z,5.87
2023-05-09T09:45:51.700Z,6.63
2023-05-09T09:48:19.793Z,6.37
2023-05-09T09:50:49.429Z,6.50
2023-05-09T09:53:17.613Z,6.80
2023-05-09T09:55:53.837Z,6.97
2023-05-09T09:58:24.827Z,6.07
2023-05-09T10:01:06.589Z,5.87
2023-05-09T10:03:38.614Z,6.50
2023-05-09T10:06:10.471Z,6.57
2023-05-09T10:08:38.421Z,6.37
2023-05-09T10:11:07.972Z,6.70
2023-05-09T10:13:37.404Z,7.87
2023-05-09T10:16:06.887Z,6.90
2023-05-09T10:18:36.143Z,8.63
2023-05-09T10:21:05.386Z,7.70
2023-05-09T10:23:38.329Z,8.70
2023-05-09T10:26:17.212Z,6.10
2023-05-09T10:28:47.673Z,6.97
2023-05-09T10:31:22.624Z,6.60
2023-05-09T10:33:52.323Z,6.43
2023-05-09T10:36:21.799Z,6.87
2023-05-09T10:38:50.862Z,6.60
2023-05-09T10:41:22.130Z,5.97
2023-05-09T10:43:50.485Z,5.40
2023-05-09T10:46:19.007Z,5.57
2023-05-09T10:48:48.898Z,5.60
2023-05-09T10:51:18.325Z,5.63
2023-05-09T10:53:47.993Z,5.90
2023-05-09T10:56:28.023Z,6.17
2023-05-09T10:58:56.528Z,6.70
2023-05-09T11:01:34.937Z,6.77
2023-05-09T11:04:09.827Z,6.93
2023-05-09T11:06:48.953Z,7.23
2023-05-09T11:09:41.677Z,7.13
2023-05-09T11:12:13.402Z,7.43
2023-05-09T11:14:45.913Z,6.43
2023-05-09T11:17:14.825Z,6.30
2023-05-09T11:20:00.323Z,5.97
2023-05-09T11:22:30.813Z,6.77
2023-05-09T11:25:06.372Z,6.67
2023-05-09T11:27:44.454Z,7.10
2023-05-09T11:30:15.021Z,7.07
2023-05-09T11:32:46.093Z,6.00
2023-05-09T11:35:16.282Z,5.80
2023-05-09T11:37:49.867Z,6.50
2023-05-09T11:40:19.597Z,5.57
2023-05-09T11:42:50.514Z,7.10
2023-05-09T11:45:18.969Z,6.67
2023-05-09T11:47:47.299Z,7.07
2023-05-09T11:50:17.785Z,5.87
2023-05-09T11:52:45.985Z,5.90
2023-05-09T11:55:15.451Z,8.33
2023-05-09T11:57:45.591Z,7.70
2023-05-09T12:00:17.253Z,7.23
2023-05-09T12:02:46.516Z,6.43
2023-05-09T12:05:16.658Z,6.23
2023-05-09T12:07:45.333Z,6.43
2023-05-09T12:10:15.544Z,6.10
2023-05-09T12:12:45.481Z,7.90
2023-05-09T12:15:15.963Z,7.07
2023-05-09T12:17:45.591Z,5.93
2023-05-09T12:20:13.874Z,5.53
2023-05-09T12:22:44.115Z,5.77
2023-05-09T12:25:12.999Z,5.83
2023-05-09T12:27:41.960Z,5.67
2023-05-09T12:30:12.067Z,6.43
2023-05-09T12:32:42.699Z,5.60
2023-05-09T12:35:11.410Z,5.37
2023-05-09T12:37:39.656Z,5.57
2023-05-09T12:40:12.480Z,6.73
2023-05-09T12:42:41.259Z,5.80
2023-05-09T12:45:10.622Z,5.43
2023-05-09T12:47:39.694Z,5.67
2023-05-09T12:50:12.195Z,5.43
2023-05-09T12:52:54.681Z,7.10
2023-05-09T12:55:30.217Z,6.47
2023-05-09T12:58:01.570Z,7.47
2023-05-09T13:00:30.249Z,5.60
2023-05-09T13:02:58.294Z,6.30
2023-05-09T13:05:27.647Z,6.60
2023-05-09T13:07:58.199Z,5.57
2023-05-09T13:10:28.371Z,6.00
2023-05-09T13:12:56.349Z,6.33
2023-05-09T13:15:26.798Z,6.57
2023-05-09T13:17:55.586Z,5.17
2023-05-09T13:20:23.706Z,6.23
2023-05-09T13:22:53.012Z,5.93
2023-05-09T13:25:21.194Z,6.43
2023-05-09T13:27:49.122Z,6.93
2023-05-09T13:30:18.163Z,6.50
2023-05-09T13:32:47.428Z,7.30
2023-05-09T13:35:16.477Z,5.90
2023-05-09T13:37:44.551Z,5.97
2023-05-09T13:40:15.297Z,6.53
2023-05-09T13:42:43.363Z,5.87
2023-05-09T13:45:12.531Z,6.27
2023-05-09T13:47:40.621Z,5.67
2023-05-09T13:50:09.431Z,5.53
2023-05-09T13:52:37.344Z,6.80
2023-05-09T13:55:05.967Z,6.57
2023-05-09T13:57:35.186Z,6.67
2023-05-09T14:00:04.063Z,6.60
2023-05-09T14:02:32.132Z,6.10
2023-05-09T14:05:02.820Z,5.53
2023-05-09T14:07:30.788Z,5.70
2023-05-09T14:10:10.976Z,6.50
2023-05-09T14:12:44.325Z,8.10
2023-05-09T14:15:12.551Z,5.87
2023-05-09T14:17:40.909Z,7.80
2023-05-09T14:20:10.045Z,8.73
2023-05-09T14:22:38.068Z,7.83
2023-05-09T14:25:06.652Z,7.10
2023-05-09T14:27:37.182Z,6.47
2023-05-09T14:30:07.592Z,5.53
2023-05-09T14:32:35.678Z,5.80
2023-05-09T14:35:03.636Z,7.73
2023-05-09T14:37:32.094Z,7.50
2023-05-09T14:40:05.396Z,7.37
2023-05-09T14:42:33.759Z,8.70
2023-05-09T14:45:01.589Z,6.53
2023-05-09T14:47:30.969Z,6.80
2023-05-09T14:49:59.055Z,6.03
2023-05-09T14:52:27.205Z,6.63
2023-05-09T14:54:55.151Z,6.57
2023-05-09T14:57:23.052Z,6.27
2023-05-09T14:59:51.218Z,6.70
2023-05-09T15:02:19.162Z,5.67
2023-05-09T15:04:48.948Z,6.37
2023-05-09T15:07:16.889Z,7.13
2023-05-09T15:09:44.774Z,6.13
2023-05-09T15:12:12.658Z,6.53
2023-05-09T15:14:40.606Z,6.50
2023-05-09T15:17:08.628Z,6.57
2023-05-09T15:19:37.965Z,6.33
2023-05-09T15:22:08.606Z,7.07
2023-05-09T15:24:36.499Z,7.20
2023-05-09T15:27:04.722Z,7.37
2023-05-09T15:29:32.633Z,6.53
2023-05-09T15:32:00.532Z,6.38
2023-05-09T15:34:28.725Z,7.37
2023-05-09T15:36:57.041Z,7.07
2023-05-09T15:39:27.175Z,6.60
2023-05-09T15:41:55.148Z,5.63
2023-05-09T15:44:23.103Z,5.77
2023-05-09T15:46:51.052Z,5.97
2023-05-09T15:49:19.033Z,6.27
2023-05-09T15:51:46.940Z,6.93
2023-05-09T15:54:15.202Z,5.87
2023-05-09T15:56:44.914Z,6.65
2023-05-09T15:59:12.917Z,7.00
2023-05-09T16:01:40.831Z,6.13
2023-05-09T16:04:09.101Z,6.47
2023-05-09T16:06:37.896Z,6.87
2023-05-09T16:09:05.852Z,6.87
2023-05-09T16:11:33.810Z,6.07
2023-05-09T16:14:05.116Z,5.70
2023-05-09T16:16:33.145Z,7.20
2023-05-09T16:19:02.470Z,8.73
2023-05-09T16:21:32.927Z,6.57
2023-05-09T16:24:04.065Z,6.07
2023-05-09T16:26:32.449Z,5.63
2023-05-09T16:29:02.154Z,6.80
2023-05-09T16:31:32.194Z,6.87
2023-05-09T16:34:01.521Z,5.93
2023-05-09T16:36:30.394Z,6.83
2023-05-09T16:38:58.390Z,5.60
2023-05-09T16:41:26.329Z,5.10
2023-05-09T16:43:54.196Z,5.50
2023-05-09T16:46:23.879Z,6.07
2023-05-09T16:48:52.713Z,5.73
2023-05-09T16:51:20.595Z,6.00
2023-05-09T16:53:48.510Z,6.23
2023-05-09T16:56:16.467Z,7.57
2023-05-09T16:58:44.950Z,6.03
2023-05-09T17:01:13.299Z,6.30
2023-05-09T17:03:42.593Z,6.30
2023-05-09T17:06:10.621Z,6.50
2023-05-09T17:08:38.635Z,7.80
2023-05-09T17:11:06.543Z,8.73
2023-05-09T17:13:34.410Z,8.80
2023-05-09T17:16:02.455Z,7.57
2023-05-09T17:18:37.555Z,7.20
2023-05-09T17:21:07.772Z,7.13
2023-05-09T17:23:35.681Z,7.37
2023-05-09T17:26:03.852Z,6.33
2023-05-09T17:28:31.774Z,6.67
2023-05-09T17:30:59.709Z,4.70
2023-05-09T17:33:27.973Z,5.73
2023-05-09T17:35:55.961Z,5.50
2023-05-09T17:38:25.297Z,6.20
2023-05-09T17:40:53.508Z,5.57
2023-05-09T17:43:21.915Z,5.63
2023-05-09T17:45:49.933Z,5.97
2023-05-09T17:48:21.247Z,5.37
2023-05-09T17:50:49.393Z,6.43
2023-05-09T17:53:17.295Z,6.73
2023-05-09T17:55:46.626Z,7.60
2023-05-09T17:58:14.990Z,7.03
2023-05-09T18:00:43.576Z,5.90
2023-05-09T18:03:11.607Z,6.80
2023-05-09T18:05:40.112Z,6.20
2023-05-09T18:08:08.060Z,6.37
2023-05-09T18:10:35.999Z,5.97
2023-05-09T18:13:05.357Z,6.20
2023-05-09T18:15:37.890Z,6.10
2023-05-09T18:18:09.156Z,5.87
2023-05-09T18:20:38.163Z,5.93
2023-05-09T18:23:06.306Z,6.17
2023-05-09T18:25:35.058Z,6.03
2023-05-09T18:28:02.948Z,7.07
2023-05-09T18:30:32.493Z,5.37
2023-05-09T18:33:01.585Z,6.43
2023-05-09T18:35:29.941Z,6.70
2023-05-09T18:37:57.999Z,6.03
2023-05-09T18:40:25.879Z,6.63
2023-05-09T18:42:53.817Z,6.03
2023-05-09T18:45:21.800Z,5.43
2023-05-09T18:47:51.262Z,6.23
2023-05-09T18:50:19.372Z,5.90
2023-05-09T18:52:47.346Z,5.77
2023-05-09T18:55:15.421Z,5.53
2023-05-09T18:57:43.323Z,6.03
2023-05-09T19:00:12.667Z,5.73
2023-05-09T19:02:40.674Z,5.60
2023-05-09T19:05:10.883Z,6.10
2023-05-09T19:07:39.763Z,5.90
2023-05-09T19:10:09.381Z,6.50
2023-05-09T19:12:37.427Z,5.67
2023-05-09T19:15:06.442Z,6.27
2023-05-09T19:17:34.646Z,6.47
2023-05-09T19:20:03.877Z,5.93
2023-05-09T19:22:33.214Z,6.33
2023-05-09T19:25:01.188Z,6.53
2023-05-09T19:27:29.222Z,6.50
2023-05-09T19:29:57.138Z,6.83
2023-05-09T19:32:25.095Z,6.47
2023-05-09T19:34:53.001Z,6.97
2023-05-09T19:37:20.920Z,7.53
2023-05-09T19:39:50.211Z,7.10
2023-05-09T19:42:18.122Z,6.73
2023-05-09T19:44:46.492Z,6.70
2023-05-09T19:47:14.426Z,6.67
2023-05-09T19:49:43.052Z,6.47
2023-05-09T19:52:11.137Z,6.43
2023-05-09T19:54:39.039Z,6.83
2023-05-09T19:57:12.438Z,5.80
2023-05-09T19:59:40.366Z,5.17
2023-05-09T20:02:08.670Z,5.80
2023-05-09T20:04:37.772Z,5.67
2023-05-09T20:07:06.162Z,5.73
2023-05-09T20:09:34.114Z,5.70
2023-05-09T20:12:03.670Z,6.67
2023-05-09T20:14:33.208Z,6.90
2023-05-09T20:17:01.222Z,5.60
2023-05-09T20:19:29.105Z,5.93
2023-05-09T20:21:57.226Z,6.13
2023-05-09T20:24:25.132Z,5.67
2023-05-09T20:26:55.019Z,5.67
2023-05-09T20:29:22.991Z,6.40
2023-05-09T20:31:52.388Z,5.97
2023-05-09T20:34:21.469Z,6.17
2023-05-09T20:36:53.362Z,5.63
2023-05-09T20:39:22.057Z,6.03
2023-05-09T20:41:51.382Z,5.67
2023-05-09T20:44:20.084Z,5.37
2023-05-09T20:46:48.082Z,5.27
2023-05-09T20:49:17.348Z,5.60
2023-05-09T20:51:45.277Z,5.27
2023-05-09T20:54:13.269Z,5.57
2023-05-09T20:56:41.163Z,6.03
2023-05-09T20:59:09.036Z,5.63
2023-05-09T21:01:37.089Z,5.73
2023-05-09T21:04:05.967Z,6.77
2023-05-09T21:06:36.474Z,5.10
2023-05-09T21:09:05.313Z,5.80
2023-05-09T21:11:33.247Z,5.57
2023-05-09T21:14:01.170Z,5.63
2023-05-09T21:16:29.568Z,5.10
2023-05-09T21:18:58.015Z,5.63
2023-05-09T21:21:25.933Z,6.43
2023-05-09T21:23:55.220Z,5.50
2023-05-09T21:26:23.307Z,5.93
2023-05-09T21:28:51.741Z,5.83
2023-05-09T21:31:19.848Z,6.60
2023-05-09T21:33:47.834Z,5.67
2023-05-09T21:36:15.721Z,5.50
2023-05-09T21:38:43.782Z,5.27
2023-05-09T21:41:12.984Z,5.93
2023-05-09T21:43:40.920Z,5.73
2023-05-09T21:46:08.981Z,5.70
2023-05-09T21:48:36.934Z,5.63
2023-05-09T21:51:05.408Z,5.93
2023-05-09T21:53:33.312Z,5.77
2023-05-09T21:56:01.217Z,5.60
2023-05-09T21:58:30.599Z,5.70
2023-05-09T22:00:58.535Z,5.60
2023-05-09T22:03:26.645Z,5.43
2023-05-09T22:05:54.657Z,6.40
2023-05-09T22:08:23.615Z,7.07
2023-05-09T22:10:51.630Z,8.57
2023-05-09T22:13:19.733Z,9.03
2023-05-09T22:15:48.976Z,9.10
2023-05-09T22:18:17.230Z,8.27
2023-05-09T22:20:45.186Z,7.97
2023-05-09T22:23:13.206Z,6.97
2023-05-09T22:25:41.098Z,6.30
2023-05-09T22:28:09.228Z,6.43
2023-05-09T22:30:37.225Z,6.80
2023-05-09T22:33:06.786Z,6.23
2023-05-09T22:35:34.714Z,5.60
2023-05-09T22:38:03.269Z,5.80
2023-05-09T22:40:31.478Z,6.03
2023-05-09T22:42:59.466Z,6.07
2023-05-09T22:45:27.430Z,5.40
2023-05-09T22:47:55.466Z,5.53
2023-05-09T22:50:24.865Z,5.47
2023-05-09T22:52:52.818Z,5.80
2023-05-09T22:55:20.818Z,5.73
2023-05-09T22:57:48.782Z,5.57
2023-05-09T23:00:18.187Z,6.10
2023-05-09T23:02:46.711Z,5.50
2023-05-09T23:05:14.731Z,5.43
2023-05-09T23:07:44.037Z,6.20
2023-05-09T23:10:12.101Z,6.13
2023-05-09T23:12:39.981Z,6.53
2023-05-09T23:15:08.968Z,5.50
2023-05-09T23:17:36.936Z,6.77
2023-05-09T23:20:05.601Z,6.80
2023-05-09T23:22:33.581Z,7.30
2023-05-09T23:25:03.350Z,7.83
2023-05-09T23:27:31.872Z,5.70
2023-05-09T23:29:59.779Z,5.80
2023-05-09T23:32:27.925Z,6.40
2023-05-09T23:34:55.835Z,6.10
2023-05-09T23:37:23.785Z,6.93
2023-05-09T23:39:51.680Z,6.70
2023-05-09T23:42:21.017Z,6.53
2023-05-09T23:44:48.979Z,6.33
2023-05-09T23:47:16.940Z,6.17
2023-05-09T23:49:44.851Z,6.33
2023-05-09T23:52:12.807Z,6.13
2023-05-09T23:54:40.713Z,6.67
2023-05-09T23:57:08.631Z,6.53
2023-05-09T23:59:37.892Z,6.33
